createdAt,value
2018-05-13T03:01:00.504Z,983.66
2018-05-13T03:02:00.654Z,983.66
2018-05-13T03:03:00.816Z,983.68
2018-05-13T03:04:00.972Z,983.69
2018-05-13T03:05:01.178Z,983.71
2018-05-13T03:06:01.308Z,983.69
2018-05-13T03:07:01.472Z,983.68
2018-05-13T03:08:01.627Z,983.69
2018-05-13T03:09:01.802Z,983.70
2018-05-13T03:10:01.973Z,983.68
2018-05-13T03:11:02.141Z,983.71
2018-05-13T03:12:02.311Z,983.70
2018-05-13T03:13:02.466Z,983.69
2018-05-13T03:14:02.641Z,983.64
2018-05-13T03:15:03.490Z,983.71
2018-05-13T03:16:03.017Z,983.69
2018-05-13T03:17:03.984Z,983.64
2018-05-13T03:18:03.387Z,983.66
2018-05-13T03:19:03.612Z,983.69
2018-05-13T03:21:35.804Z,983.66
2018-05-13T03:22:35.961Z,983.65
2018-05-13T03:23:36.119Z,983.67
2018-05-13T03:24:36.329Z,983.67
2018-05-13T03:25:36.471Z,983.68
2018-05-13T03:26:36.613Z,983.63
2018-05-13T03:27:36.774Z,983.65
2018-05-13T03:28:36.920Z,983.62
2018-05-13T03:29:37.849Z,983.65
2018-05-13T03:30:37.258Z,983.68
2018-05-13T03:31:37.431Z,983.68
2018-05-13T03:32:37.575Z,983.67
2018-05-13T03:33:37.731Z,983.65
2018-05-13T03:34:37.895Z,983.58
2018-05-13T03:35:38.892Z,983.55
2018-05-13T03:36:38.307Z,983.58
2018-05-13T03:37:38.448Z,983.56
2018-05-13T03:38:38.648Z,983.59
2018-05-13T03:39:38.827Z,983.61
2018-05-13T03:40:38.970Z,983.53
2018-05-13T03:41:39.149Z,983.57
2018-05-13T03:42:39.334Z,983.58
2018-05-13T03:43:39.457Z,983.50
2018-05-13T03:44:39.600Z,983.55
2018-05-13T03:45:39.780Z,983.48
2018-05-13T03:46:39.952Z,983.51
2018-05-13T03:47:40.130Z,983.48
2018-05-13T03:48:40.249Z,983.50
2018-05-13T03:49:40.451Z,983.54
2018-05-13T03:50:41.374Z,983.53
2018-05-13T03:51:40.780Z,983.52
2018-05-13T03:52:40.922Z,983.56
2018-05-13T03:53:41.857Z,983.53
2018-05-13T03:54:41.304Z,983.53
2018-05-13T03:55:42.360Z,983.53
2018-05-13T03:56:41.569Z,983.57
2018-05-13T03:57:41.737Z,983.52
2018-05-13T03:58:41.925Z,983.55
2018-05-13T03:59:42.051Z,983.53
2018-05-13T04:00:42.284Z,983.56
2018-05-13T04:04:47.593Z,983.58
2018-05-13T04:05:47.621Z,983.62
2018-05-13T04:06:47.789Z,983.61
2018-05-13T04:08:08.949Z,983.65
2018-05-13T04:08:48.091Z,983.66
2018-05-13T04:09:48.274Z,983.64
2018-05-13T04:11:03.093Z,983.67
2018-05-13T04:11:48.582Z,983.68
2018-05-13T04:12:48.775Z,983.75
2018-05-13T04:13:48.919Z,983.82
2018-05-13T04:14:49.583Z,983.82
2018-05-13T04:15:49.276Z,983.80
2018-05-13T04:16:49.383Z,983.84
2018-05-13T04:17:49.583Z,983.77
2018-05-13T04:18:50.589Z,983.77
2018-05-13T04:19:49.886Z,983.76
2018-05-13T04:20:50.048Z,983.79
2018-05-13T04:21:50.234Z,983.72
2018-05-13T04:22:51.107Z,983.73
2018-05-13T04:23:50.483Z,983.71
2018-05-13T04:24:50.662Z,983.73
2018-05-13T04:25:50.809Z,983.73
2018-05-13T04:26:50.963Z,983.73
2018-05-13T04:27:51.096Z,983.72
2018-05-13T04:28:52.078Z,983.69
2018-05-13T04:29:51.489Z,983.73
2018-05-13T04:30:51.694Z,983.73
2018-05-13T04:31:51.815Z,983.73
2018-05-13T04:32:52.001Z,983.68
2018-05-13T04:33:52.154Z,983.63
2018-05-13T04:34:52.337Z,983.60
2018-05-13T04:35:52.520Z,983.59
2018-05-13T04:36:52.665Z,983.66
2018-05-13T04:37:52.857Z,983.67
2018-05-13T04:38:53.000Z,983.68
2018-05-13T04:39:53.159Z,983.69
2018-05-13T04:40:53.327Z,983.69
2018-05-13T04:41:53.457Z,983.64
2018-05-13T04:42:53.659Z,983.66
2018-05-13T04:45:25.884Z,983.67
2018-05-13T04:46:26.059Z,983.67
2018-05-13T04:47:26.228Z,983.69
2018-05-13T04:48:26.389Z,983.69
2018-05-13T04:49:26.545Z,983.68
2018-05-13T04:50:26.715Z,983.70
2018-05-13T04:51:26.883Z,983.76
2018-05-13T04:52:27.024Z,983.75
2018-05-13T04:53:27.205Z,983.72
2018-05-13T04:54:27.950Z,983.73
2018-05-13T04:55:27.484Z,983.74
2018-05-13T04:56:27.634Z,983.71
2018-05-13T04:57:27.797Z,983.75
2018-05-13T04:58:27.953Z,983.72
2018-05-13T04:59:28.131Z,983.74
2018-05-13T05:00:28.302Z,983.73
2018-05-13T05:01:28.497Z,983.72
2018-05-13T05:02:28.618Z,983.73
2018-05-13T05:03:29.443Z,983.78
2018-05-13T05:04:28.997Z,983.73
2018-05-13T05:05:29.168Z,983.75
2018-05-13T05:06:29.340Z,983.71
2018-05-13T05:07:29.482Z,983.69
2018-05-13T05:08:29.657Z,983.69
2018-05-13T05:09:29.851Z,983.66
2018-05-13T05:10:30.954Z,983.66
2018-05-13T05:11:30.142Z,983.69
2018-05-13T05:12:30.295Z,983.69
2018-05-13T05:13:31.486Z,983.72
2018-05-13T05:14:30.650Z,983.67
2018-05-13T05:15:31.438Z,983.67
2018-05-13T05:16:31.048Z,983.67
2018-05-13T05:17:31.163Z,983.68
2018-05-13T05:18:31.333Z,983.68
2018-05-13T05:19:31.454Z,983.70
2018-05-13T05:20:52.667Z,983.69
2018-05-13T05:21:31.798Z,983.69
2018-05-13T05:22:31.958Z,983.66
2018-05-13T05:23:32.137Z,983.69
2018-05-13T05:24:32.260Z,983.70
2018-05-13T05:25:32.429Z,983.71
2018-05-13T05:26:32.656Z,983.74
2018-05-13T05:27:32.803Z,983.73
2018-05-13T05:28:32.929Z,983.74
2018-05-13T05:29:33.131Z,983.68
2018-05-13T05:30:33.283Z,983.68
2018-05-13T05:31:33.443Z,983.65
2018-05-13T05:32:33.588Z,983.65
2018-05-13T05:33:33.789Z,983.60
2018-05-13T05:34:34.450Z,983.63
2018-05-13T05:35:34.141Z,983.64
2018-05-13T05:36:34.274Z,983.65
2018-05-13T05:37:34.452Z,983.67
2018-05-13T05:38:34.629Z,983.62
2018-05-13T05:39:34.815Z,983.61
2018-05-13T05:40:34.934Z,983.64
2018-05-13T05:41:35.097Z,983.68
2018-05-13T05:42:35.256Z,983.68
2018-05-13T05:43:35.474Z,983.67
2018-05-13T05:44:35.632Z,983.67
2018-05-13T05:45:35.765Z,983.64
2018-05-13T05:46:35.953Z,983.67
2018-05-13T05:47:36.947Z,983.67
2018-05-13T05:48:36.250Z,983.64
2018-05-13T05:49:36.406Z,983.67
2018-05-13T05:50:36.604Z,983.64
2018-05-13T05:51:36.805Z,983.62
2018-05-13T05:52:36.954Z,983.62
2018-05-13T05:53:37.096Z,983.62
2018-05-13T05:54:37.298Z,983.57
2018-05-13T05:55:37.475Z,983.59
2018-05-13T05:56:39.499Z,983.59
2018-05-13T05:57:37.774Z,983.52
2018-05-13T05:58:37.930Z,983.54
2018-05-13T06:01:10.167Z,983.51
2018-05-13T06:02:10.339Z,983.48
2018-05-13T06:03:10.503Z,983.49
2018-05-13T06:04:10.644Z,983.46
2018-05-13T06:05:12.040Z,983.46
2018-05-13T06:06:11.089Z,983.45
2018-05-13T06:07:11.250Z,983.42
2018-05-13T06:08:11.365Z,983.46
2018-05-13T06:09:11.558Z,983.47
2018-05-13T06:10:11.727Z,983.43
2018-05-13T06:11:11.846Z,983.47
2018-05-13T06:12:12.006Z,983.44
2018-05-13T06:13:12.160Z,983.51
2018-05-13T06:14:12.342Z,983.51
2018-05-13T06:15:12.554Z,983.41
2018-05-13T06:16:13.251Z,983.41
2018-05-13T06:17:12.888Z,983.43
2018-05-13T06:18:13.059Z,983.43
2018-05-13T06:19:13.228Z,983.47
2018-05-13T06:20:13.408Z,983.49
2018-05-13T06:21:13.584Z,983.44
2018-05-13T06:22:13.719Z,983.47
2018-05-13T06:23:13.899Z,983.49
2018-05-13T06:24:14.042Z,983.46
2018-05-13T06:25:14.262Z,983.42
2018-05-13T06:26:14.400Z,983.45
2018-05-13T06:27:14.525Z,983.41
2018-05-13T06:28:14.683Z,983.44
2018-05-13T06:29:14.871Z,983.47
2018-05-13T06:30:15.069Z,983.46
2018-05-13T06:31:15.187Z,983.41
2018-05-13T06:32:15.335Z,983.47
2018-05-13T06:33:15.500Z,983.52
2018-05-13T06:34:15.715Z,983.52
2018-05-13T06:35:15.826Z,983.49
2018-05-13T06:36:16.036Z,983.56
2018-05-13T06:37:16.170Z,983.53
2018-05-13T06:38:16.383Z,983.53
2018-05-13T06:39:18.261Z,983.55
2018-05-13T06:40:16.649Z,983.57
2018-05-13T06:41:16.827Z,983.57
2018-05-13T06:42:18.757Z,983.56
2018-05-13T06:46:21.296Z,983.54
2018-05-13T06:47:21.453Z,983.53
2018-05-13T06:48:21.647Z,983.52
2018-05-13T06:49:21.869Z,983.53
2018-05-13T06:50:21.997Z,983.55
2018-05-13T06:51:22.199Z,983.52
2018-05-13T06:52:22.348Z,983.49
2018-05-13T06:53:22.499Z,983.58
2018-05-13T06:54:23.364Z,983.54
2018-05-13T06:55:22.811Z,983.53
2018-05-13T06:56:22.928Z,983.51
2018-05-13T06:57:23.159Z,983.52
2018-05-13T06:58:23.259Z,983.52
2018-05-13T06:59:23.425Z,983.51
2018-05-13T07:00:23.616Z,983.53
2018-05-13T07:01:23.857Z,983.56
2018-05-13T07:02:23.950Z,983.58
2018-05-13T07:03:24.068Z,983.58
2018-05-13T07:04:24.312Z,983.62
2018-05-13T07:05:25.377Z,983.59
2018-05-13T07:06:24.618Z,983.62
2018-05-13T07:08:57.901Z,983.61
2018-05-13T07:11:30.056Z,983.58
2018-05-13T07:12:29.223Z,983.61
2018-05-13T07:13:29.401Z,983.59
2018-05-13T07:14:29.548Z,983.58
2018-05-13T07:15:29.793Z,983.57
2018-05-13T07:16:44.585Z,983.55
2018-05-13T07:17:30.110Z,983.50
2018-05-13T07:18:30.356Z,983.54
2018-05-13T07:19:30.467Z,983.51
2018-05-13T07:20:31.568Z,983.43
2018-05-13T07:21:30.889Z,983.47
2018-05-13T07:22:31.034Z,983.46
2018-05-13T07:23:31.176Z,983.49
2018-05-13T07:24:32.069Z,983.44
2018-05-13T07:25:31.555Z,983.43
2018-05-13T07:26:31.708Z,983.41
2018-05-13T07:27:32.636Z,983.36
2018-05-13T07:28:31.992Z,983.32
2018-05-13T07:29:32.219Z,983.34
2018-05-13T07:30:32.372Z,983.32
2018-05-13T07:31:33.074Z,983.30
2018-05-13T07:32:32.671Z,983.25
2018-05-13T07:33:32.785Z,983.21
2018-05-13T07:34:32.985Z,983.21
2018-05-13T07:35:34.114Z,983.21
2018-05-13T07:36:33.400Z,983.17
2018-05-13T07:37:33.557Z,983.13
2018-05-13T07:38:33.686Z,983.15
2018-05-13T07:39:33.851Z,983.08
2018-05-13T07:40:34.003Z,983.11
2018-05-13T07:41:34.226Z,983.06
2018-05-13T07:42:34.428Z,983.05
2018-05-13T07:43:34.598Z,983.05
2018-05-13T07:44:34.748Z,983.04
2018-05-13T07:45:34.924Z,983.04
2018-05-13T07:46:35.024Z,983.05
2018-05-13T07:47:35.271Z,983.04
2018-05-13T07:48:35.360Z,983.03
2018-05-13T07:49:35.637Z,983.06
2018-05-13T07:50:35.781Z,983.04
2018-05-13T07:51:35.940Z,983.02
2018-05-13T07:52:36.638Z,983.03
2018-05-13T07:53:36.560Z,983.02
2018-05-13T07:54:36.464Z,982.98
2018-05-13T07:55:36.589Z,983.00
2018-05-13T07:56:36.791Z,983.03
2018-05-13T07:57:36.969Z,983.05
2018-05-13T07:58:37.134Z,983.09
2018-05-13T07:59:37.304Z,983.02
2018-05-13T08:00:37.465Z,983.01
2018-05-13T08:01:37.645Z,983.01
2018-05-13T08:02:37.823Z,982.97
2018-05-13T08:03:37.970Z,983.02
2018-05-13T08:04:38.181Z,983.02
2018-05-13T08:05:38.347Z,982.98
2018-05-13T08:06:38.480Z,982.99
2018-05-13T08:07:38.633Z,983.02
2018-05-13T08:15:31.900Z,983.01
2018-05-13T08:15:57.054Z,983.07
2018-05-13T08:16:57.223Z,983.10
2018-05-13T08:17:57.356Z,983.05
2018-05-13T08:18:57.553Z,983.05
2018-05-13T08:19:57.732Z,983.03
2018-05-13T08:20:57.872Z,983.05
2018-05-13T08:21:58.919Z,983.05
2018-05-13T08:22:58.224Z,982.99
2018-05-13T08:23:58.349Z,983.02
2018-05-13T08:24:59.425Z,982.93
2018-05-13T08:25:58.667Z,983.04
2018-05-13T08:26:58.846Z,983.01
2018-05-13T08:27:59.034Z,983.00
2018-05-13T08:28:59.175Z,982.98
2018-05-13T08:29:59.462Z,982.96
2018-05-13T08:30:59.535Z,982.98
2018-05-13T08:31:59.710Z,983.04
2018-05-13T08:32:59.885Z,983.01
2018-05-13T08:34:00.017Z,982.96
2018-05-13T08:35:00.199Z,983.00
2018-05-13T08:36:00.341Z,982.99
2018-05-13T08:37:00.554Z,982.98
2018-05-13T08:38:00.688Z,982.98
2018-05-13T08:39:00.877Z,982.97
2018-05-13T08:40:01.025Z,982.96
2018-05-13T08:41:01.195Z,982.92
2018-05-13T08:42:01.414Z,982.90
2018-05-13T08:43:01.543Z,982.90
2018-05-13T08:44:01.744Z,982.85
2018-05-13T08:45:01.924Z,982.85
2018-05-13T08:46:02.087Z,982.84
2018-05-13T08:47:02.188Z,982.78
2018-05-13T08:48:02.364Z,982.79
2018-05-13T08:49:02.575Z,982.76
2018-05-13T08:50:02.767Z,982.81
2018-05-13T08:51:02.914Z,982.78
2018-05-13T08:52:03.058Z,982.76
2018-05-13T08:53:03.925Z,982.76
2018-05-13T08:54:03.577Z,982.82
2018-05-13T08:55:03.617Z,982.76
2018-05-13T08:56:03.777Z,982.74
2018-05-13T08:57:03.953Z,982.83
2018-05-13T08:58:04.101Z,982.82
2018-05-13T08:59:04.298Z,982.81
2018-05-13T09:00:04.504Z,982.78
2018-05-13T09:01:04.647Z,982.80
2018-05-13T09:02:04.822Z,982.82
2018-05-13T09:03:04.940Z,982.80
2018-05-13T09:04:05.094Z,982.79
2018-05-13T09:05:05.287Z,982.83
2018-05-13T09:06:05.449Z,982.77
2018-05-13T09:07:05.624Z,982.78
2018-05-13T09:08:05.773Z,982.72
2018-05-13T09:09:05.958Z,982.69
2018-05-13T09:10:06.895Z,982.75
2018-05-13T09:11:06.923Z,982.74
2018-05-13T09:12:06.562Z,982.73
2018-05-13T09:13:06.740Z,982.76
2018-05-13T09:14:06.971Z,982.68
2018-05-13T09:15:07.114Z,982.70
2018-05-13T09:16:07.271Z,982.69
2018-05-13T09:17:07.451Z,982.70
2018-05-13T09:18:07.626Z,982.72
2018-05-13T09:19:07.776Z,982.70
2018-05-13T09:20:07.939Z,982.68
2018-05-13T09:21:08.103Z,982.67
2018-05-13T09:22:08.251Z,982.69
2018-05-13T09:23:08.416Z,982.74
2018-05-13T09:24:08.567Z,982.71
2018-05-13T09:25:08.742Z,982.71
2018-05-13T09:26:08.948Z,982.65
2018-05-13T09:27:09.104Z,982.69
2018-05-13T09:28:09.218Z,982.60
2018-05-13T09:29:09.416Z,982.64
2018-05-13T09:30:09.576Z,982.70
2018-05-13T09:31:09.766Z,982.66
2018-05-13T09:32:09.930Z,982.67
2018-05-13T09:33:10.244Z,982.67
2018-05-13T09:34:10.314Z,982.71
2018-05-13T09:35:10.466Z,982.70
2018-05-13T09:36:10.663Z,982.72
2018-05-13T09:37:10.818Z,982.77
2018-05-13T09:38:10.971Z,982.81
2018-05-13T09:39:11.129Z,982.79
2018-05-13T09:40:11.307Z,982.80
2018-05-13T09:41:11.492Z,982.78
2018-05-13T09:42:12.414Z,982.80
2018-05-13T09:43:11.838Z,982.84
2018-05-13T09:44:11.997Z,982.85
2018-05-13T09:45:12.197Z,982.85
2018-05-13T09:46:12.310Z,982.93
2018-05-13T09:47:12.575Z,982.97
2018-05-13T09:48:12.639Z,983.06
2018-05-13T09:49:12.836Z,983.07
2018-05-13T09:50:13.015Z,982.96
2018-05-13T09:51:13.186Z,982.97
2018-05-13T09:52:13.365Z,982.82
2018-05-13T09:53:13.491Z,982.80
2018-05-13T09:54:13.691Z,982.73
2018-05-13T09:55:13.845Z,982.50
2018-05-13T09:56:14.013Z,982.48
2018-05-13T09:57:14.203Z,982.49
2018-05-13T09:58:14.320Z,982.55
2018-05-13T09:59:15.467Z,982.55
2018-05-13T10:00:14.708Z,982.51
2018-05-13T10:01:14.904Z,982.50
2018-05-13T10:02:15.090Z,982.66
2018-05-13T10:03:15.969Z,982.63
2018-05-13T10:04:15.348Z,982.51
2018-05-13T10:05:15.568Z,982.70
2018-05-13T10:06:15.704Z,982.72
2018-05-13T10:07:15.934Z,982.75
2018-05-13T10:08:16.942Z,982.59
2018-05-13T10:09:16.250Z,982.34
2018-05-13T10:10:16.417Z,982.30
2018-05-13T10:11:16.550Z,982.27
2018-05-13T10:12:16.726Z,982.33
2018-05-13T10:13:16.872Z,982.42
2018-05-13T10:14:17.070Z,982.45
2018-05-13T10:15:17.249Z,982.57
2018-05-13T10:16:17.425Z,982.50
2018-05-13T10:17:17.566Z,982.62
2018-05-13T10:18:17.759Z,982.61
2018-05-13T10:19:18.029Z,982.60
2018-05-13T10:20:18.153Z,982.43
2018-05-13T10:21:18.289Z,982.39
2018-05-13T10:22:18.468Z,982.34
2018-05-13T10:23:18.656Z,982.34
2018-05-13T10:24:18.883Z,982.23
2018-05-13T10:25:18.999Z,982.24
2018-05-13T10:26:19.182Z,982.18
2018-05-13T10:27:19.425Z,982.55
2018-05-13T10:28:19.537Z,982.55
2018-05-13T10:29:19.677Z,982.14
2018-05-13T10:30:19.895Z,982.10
2018-05-13T10:31:20.029Z,982.05
2018-05-13T10:32:20.223Z,982.13
2018-05-13T10:33:20.422Z,982.26
2018-05-13T10:34:20.589Z,982.39
2018-05-13T10:35:20.754Z,982.19
2018-05-13T10:36:20.957Z,982.65
2018-05-13T10:37:21.102Z,982.63
2018-05-13T10:38:21.274Z,982.36
2018-05-13T10:39:21.442Z,982.31
2018-05-13T10:40:21.623Z,982.37
2018-05-13T10:41:21.786Z,982.00
2018-05-13T10:42:21.965Z,982.01
2018-05-13T10:43:22.112Z,982.08
2018-05-13T10:44:22.281Z,982.08
2018-05-13T10:45:22.398Z,982.35
2018-05-13T10:46:22.600Z,983.96
2018-05-13T10:47:23.465Z,984.06
2018-05-13T10:48:23.003Z,983.77
2018-05-13T10:49:23.163Z,983.87
2018-05-13T10:50:23.396Z,983.92
2018-05-13T10:51:23.512Z,982.11
2018-05-13T10:52:23.659Z,983.79
2018-05-13T10:53:23.910Z,982.07
2018-05-13T10:54:24.033Z,982.01
2018-05-13T10:55:24.211Z,981.95
2018-05-13T10:56:24.410Z,981.93
2018-05-13T10:57:24.524Z,981.88
2018-05-13T10:58:25.462Z,981.92
2018-05-13T10:59:24.915Z,981.99
2018-05-13T11:00:25.054Z,981.88
2018-05-13T11:01:25.192Z,981.91
2018-05-13T11:02:25.387Z,981.87
2018-05-13T11:03:25.520Z,981.85
2018-05-13T11:04:25.746Z,981.81
2018-05-13T11:05:25.857Z,981.76
2018-05-13T11:06:26.051Z,981.76
2018-05-13T11:07:26.230Z,981.77
2018-05-13T11:08:26.429Z,981.75
2018-05-13T11:09:26.582Z,981.79
2018-05-13T11:10:26.746Z,981.78
2018-05-13T11:11:26.900Z,981.77
2018-05-13T11:12:27.118Z,981.78
2018-05-13T11:13:27.262Z,981.80
2018-05-13T11:14:27.427Z,981.82
2018-05-13T11:15:27.594Z,981.96
2018-05-13T11:16:27.735Z,982.11
2018-05-13T11:17:27.936Z,981.98
2018-05-13T11:18:28.123Z,981.97
2018-05-13T11:19:28.265Z,982.07
2018-05-13T11:20:28.506Z,982.38
2018-05-13T11:21:28.708Z,982.40
2018-05-13T11:22:28.796Z,982.35
2018-05-13T11:23:28.995Z,982.46
2018-05-13T11:24:29.145Z,982.72
2018-05-13T11:25:29.306Z,982.02
2018-05-13T11:26:30.433Z,982.77
2018-05-13T11:27:29.623Z,982.82
2018-05-13T11:28:29.817Z,982.84
2018-05-13T11:29:29.968Z,982.82
2018-05-13T11:30:30.146Z,982.83
2018-05-13T11:31:30.308Z,982.84
2018-05-13T11:32:30.507Z,982.56
2018-05-13T11:33:30.619Z,982.09
2018-05-13T11:34:30.807Z,982.32
2018-05-13T11:35:30.961Z,982.20
2018-05-13T11:36:31.181Z,982.09
2018-05-13T11:37:31.309Z,982.10
2018-05-13T11:38:31.530Z,982.01
2018-05-13T11:39:31.697Z,981.89
2018-05-13T11:40:31.860Z,981.76
2018-05-13T11:41:31.986Z,981.67
2018-05-13T11:42:32.172Z,981.65
2018-05-13T11:43:32.386Z,981.60
2018-05-13T11:44:32.481Z,981.60
2018-05-13T11:45:33.542Z,981.62
2018-05-13T11:46:32.898Z,981.60
2018-05-13T11:47:33.031Z,981.58
2018-05-13T11:48:33.186Z,981.64
2018-05-13T11:49:33.351Z,981.66
2018-05-13T11:50:33.563Z,981.68
2018-05-13T11:51:33.697Z,981.76
2018-05-13T11:52:34.422Z,981.75
2018-05-13T11:53:34.197Z,981.84
2018-05-13T11:54:34.295Z,981.80
2018-05-13T11:55:34.946Z,981.84
2018-05-13T11:56:34.651Z,982.10
2018-05-13T11:57:34.832Z,982.53
2018-05-13T11:58:34.992Z,982.40
2018-05-13T11:59:35.152Z,982.05
2018-05-13T12:00:35.277Z,981.91
2018-05-13T12:01:35.478Z,981.88
2018-05-13T12:02:35.654Z,981.81
2018-05-13T12:03:35.862Z,981.91
2018-05-13T12:04:36.983Z,982.55
2018-05-13T12:05:36.159Z,982.51
2018-05-13T12:06:36.377Z,982.62
2018-05-13T12:07:36.475Z,982.47
2018-05-13T12:08:36.658Z,982.39
2018-05-13T12:09:36.812Z,981.97
2018-05-13T12:10:36.973Z,981.86
2018-05-13T12:11:37.217Z,981.81
2018-05-13T12:12:37.301Z,981.74
2018-05-13T12:13:37.465Z,981.76
2018-05-13T12:14:37.647Z,981.81
2018-05-13T12:15:37.841Z,981.83
2018-05-13T12:16:38.001Z,981.96
2018-05-13T12:17:38.232Z,982.01
2018-05-13T12:18:38.960Z,982.16
2018-05-13T12:19:38.477Z,982.16
2018-05-13T12:20:38.675Z,982.15
2018-05-13T12:21:38.817Z,981.89
2018-05-13T12:22:39.015Z,981.93
2018-05-13T12:23:39.222Z,981.89
2018-05-13T12:24:39.987Z,981.67
2018-05-13T12:25:39.534Z,981.70
2018-05-13T12:26:39.709Z,981.71
2018-05-13T12:27:39.844Z,981.75
2018-05-13T12:28:40.084Z,981.73
2018-05-13T12:29:40.186Z,981.72
2018-05-13T12:30:40.383Z,981.79
2018-05-13T12:31:40.533Z,981.81
2018-05-13T12:32:40.733Z,981.88
2018-05-13T12:33:40.946Z,981.83
2018-05-13T12:34:41.057Z,981.82
2018-05-13T12:35:41.257Z,981.82
2018-05-13T12:36:41.435Z,981.86
2018-05-13T12:37:41.574Z,981.96
2018-05-13T12:38:42.476Z,982.05
2018-05-13T12:39:41.861Z,982.03
2018-05-13T12:40:42.043Z,981.91
2018-05-13T12:41:42.258Z,981.77
2018-05-13T12:42:42.428Z,981.67
2018-05-13T12:43:42.528Z,981.65
2018-05-13T12:44:42.734Z,981.71
2018-05-13T12:45:42.903Z,981.67
2018-05-13T12:46:43.106Z,981.67
2018-05-13T12:47:43.257Z,981.62
2018-05-13T12:48:43.430Z,981.63
2018-05-13T12:49:43.576Z,981.59
2018-05-13T12:50:43.834Z,981.56
2018-05-13T12:51:43.918Z,981.50
2018-05-13T12:52:44.133Z,981.48
2018-05-13T12:53:44.326Z,981.43
2018-05-13T12:54:44.463Z,981.43
2018-05-13T12:55:44.632Z,981.37
2018-05-13T12:56:44.857Z,981.42
2018-05-13T12:57:44.968Z,981.40
2018-05-13T12:58:45.127Z,981.36
2018-05-13T12:59:45.278Z,981.37
2018-05-13T13:00:46.475Z,981.37
2018-05-13T13:01:45.669Z,981.38
2018-05-13T13:02:45.840Z,981.36
2018-05-13T13:03:46.041Z,981.33
2018-05-13T13:04:46.155Z,981.29
2018-05-13T13:05:46.371Z,981.34
2018-05-13T13:06:46.463Z,981.31
2018-05-13T13:07:46.793Z,981.29
2018-05-13T13:08:46.878Z,981.30
2018-05-13T13:09:47.950Z,981.28
2018-05-13T13:10:47.137Z,981.34
2018-05-13T13:11:47.356Z,981.31
2018-05-13T13:12:47.551Z,981.32
2018-05-13T13:13:47.659Z,981.30
2018-05-13T13:14:47.804Z,981.28
2018-05-13T13:15:47.995Z,981.29
2018-05-13T13:16:48.227Z,981.29
2018-05-13T13:17:48.306Z,981.31
2018-05-13T13:18:48.502Z,981.30
2018-05-13T13:19:48.679Z,981.44
2018-05-13T13:20:48.831Z,981.55
2018-05-13T13:21:49.011Z,981.62
2018-05-13T13:22:49.173Z,981.57
2018-05-13T13:23:49.325Z,981.66
2018-05-13T13:24:49.512Z,981.45
2018-05-13T13:25:49.686Z,981.38
2018-05-13T13:26:49.835Z,981.34
2018-05-13T13:27:50.025Z,981.34
2018-05-13T13:28:50.158Z,981.33
2018-05-13T13:29:50.355Z,981.30
2018-05-13T13:30:50.544Z,981.34
2018-05-13T13:31:50.741Z,981.27
2018-05-13T13:32:50.853Z,981.26
2018-05-13T13:33:51.030Z,981.26
2018-05-13T13:34:51.164Z,981.25
2018-05-13T13:35:51.362Z,981.22
2018-05-13T13:36:51.509Z,981.23
2018-05-13T13:37:51.719Z,981.22
2018-05-13T13:38:51.901Z,981.24
2018-05-13T13:39:52.956Z,981.26
2018-05-13T13:40:52.201Z,981.24
2018-05-13T13:41:52.385Z,981.24
2018-05-13T13:42:52.547Z,981.31
2018-05-13T13:43:52.667Z,981.23
2018-05-13T13:44:52.836Z,981.21
2018-05-13T13:45:52.984Z,981.17
2018-05-13T13:46:53.165Z,981.17
2018-05-13T13:47:53.368Z,981.10
2018-05-13T13:48:53.479Z,981.08
2018-05-13T13:49:53.705Z,981.03
2018-05-13T13:50:53.855Z,981.04
2018-05-13T13:51:54.018Z,980.94
2018-05-13T13:52:54.215Z,980.98
2018-05-13T13:53:54.377Z,980.97
2018-05-13T13:54:54.509Z,980.94
2018-05-13T13:55:54.691Z,980.96
2018-05-13T13:56:54.865Z,980.89
2018-05-13T13:57:55.049Z,980.90
2018-05-13T13:58:55.213Z,980.91
2018-05-13T13:59:55.328Z,980.85
2018-05-13T14:00:55.542Z,980.88
2018-05-13T14:01:55.749Z,980.85
2018-05-13T14:02:55.916Z,980.87
2018-05-13T14:03:56.181Z,980.81
2018-05-13T14:04:56.258Z,980.85
2018-05-13T14:05:56.468Z,980.84
2018-05-13T14:06:56.635Z,980.81
2018-05-13T14:07:56.798Z,980.77
2018-05-13T14:08:56.959Z,980.78
2018-05-13T14:09:57.163Z,980.81
2018-05-13T14:10:57.245Z,980.81
2018-05-13T14:11:57.469Z,980.81
2018-05-13T14:12:57.640Z,980.79
2018-05-13T14:13:57.806Z,980.78
2018-05-13T14:14:57.931Z,980.77
2018-05-13T14:15:58.135Z,980.77
2018-05-13T14:16:58.343Z,980.77
2018-05-13T14:17:58.466Z,980.77
2018-05-13T14:18:58.637Z,980.80
2018-05-13T14:19:58.814Z,980.75
2018-05-13T14:20:59.026Z,980.79
2018-05-13T14:21:59.150Z,980.77
2018-05-13T14:22:59.291Z,980.72
2018-05-13T14:23:59.505Z,980.75
2018-05-13T14:24:59.637Z,980.72
2018-05-13T14:25:59.840Z,980.70
2018-05-13T14:27:00.011Z,980.67
2018-05-13T14:28:00.221Z,980.68
2018-05-13T14:29:00.462Z,980.65
2018-05-13T14:30:00.617Z,980.74
2018-05-13T14:31:00.738Z,980.69
2018-05-13T14:32:00.883Z,980.67
2018-05-13T14:33:01.119Z,980.72
2018-05-13T14:34:01.197Z,980.69
2018-05-13T14:35:01.343Z,980.68
2018-05-13T14:36:01.601Z,980.67
2018-05-13T14:37:01.750Z,980.65
2018-05-13T14:38:01.985Z,980.65
2018-05-13T14:39:11.821Z,980.64
2018-05-13T14:40:02.280Z,980.59
2018-05-13T14:41:02.390Z,980.65
2018-05-13T14:42:02.582Z,980.65
2018-05-13T14:43:02.761Z,980.66
2018-05-13T14:44:02.887Z,980.63
2018-05-13T14:45:03.031Z,980.68
2018-05-13T14:46:03.246Z,980.61
2018-05-13T14:47:03.419Z,980.63
2018-05-13T14:48:03.577Z,980.63
2018-05-13T14:49:03.757Z,980.65
2018-05-13T14:50:03.859Z,980.69
2018-05-13T14:51:04.102Z,980.70
2018-05-13T14:52:04.214Z,980.70
2018-05-13T14:53:04.380Z,980.73
2018-05-13T14:54:04.552Z,980.73
2018-05-13T14:55:04.673Z,980.75
2018-05-13T14:56:04.886Z,980.72
2018-05-13T14:57:05.051Z,980.71
2018-05-13T14:58:05.244Z,980.68
2018-05-13T14:59:05.337Z,980.65
2018-05-13T15:00:05.500Z,980.63
2018-05-13T15:01:05.668Z,980.54
2018-05-13T15:02:05.865Z,980.56
2018-05-13T15:03:05.981Z,980.57
2018-05-13T15:04:06.180Z,980.56
2018-05-13T15:05:06.363Z,980.55
2018-05-13T15:06:06.567Z,980.53
2018-05-13T15:07:06.624Z,980.57
2018-05-13T15:08:06.875Z,980.59
2018-05-13T15:09:07.484Z,980.66
2018-05-13T15:10:08.005Z,980.66
2018-05-13T15:11:07.330Z,980.63
2018-05-13T15:12:08.028Z,980.52
2018-05-13T15:13:07.695Z,980.69
2018-05-13T15:14:07.804Z,980.73
2018-05-13T15:15:08.000Z,980.71
2018-05-13T15:16:08.190Z,980.74
2018-05-13T15:17:08.365Z,980.74
2018-05-13T15:18:08.489Z,980.78
2018-05-13T15:19:08.682Z,980.80
2018-05-13T15:20:08.856Z,980.84
2018-05-13T15:21:09.021Z,980.84
2018-05-13T15:22:09.216Z,980.83
2018-05-13T15:23:09.383Z,980.80
2018-05-13T15:24:09.570Z,980.78
2018-05-13T15:25:09.733Z,980.81
2018-05-13T15:26:10.534Z,980.78
2018-05-13T15:27:10.032Z,980.74
2018-05-13T15:28:10.300Z,980.76
2018-05-13T15:29:10.432Z,980.77
2018-05-13T15:30:10.561Z,980.72
2018-05-13T15:31:10.747Z,980.68
2018-05-13T15:32:10.930Z,980.68
2018-05-13T15:33:11.077Z,980.68
2018-05-13T15:34:11.210Z,980.59
2018-05-13T15:35:11.420Z,980.60
2018-05-13T15:36:11.576Z,980.66
2018-05-13T15:37:11.767Z,980.55
2018-05-13T15:38:11.926Z,980.56
2018-05-13T15:39:12.079Z,980.62
2018-05-13T15:40:12.222Z,980.64
2018-05-13T15:41:12.446Z,980.57
2018-05-13T15:42:12.582Z,980.56
2018-05-13T15:43:12.784Z,980.58
2018-05-13T15:44:12.936Z,980.62
2018-05-13T15:45:13.096Z,980.61
2018-05-13T15:46:13.307Z,980.63
2018-05-13T15:47:13.512Z,980.59
2018-05-13T15:48:13.645Z,980.58
2018-05-13T15:49:13.811Z,980.57
2018-05-13T15:50:14.025Z,980.55
2018-05-13T15:51:14.194Z,980.53